Saint Augustine, Illinois
Current Conditions -  °F | °C
As of 1:15 AM on Friday 31 Oct 2014 (Local Time) from KGBG Reporting Station
Overcast Overcast  
Wind Chill: 44°   Ceiling: 6500
Heat Index: 44°   Visibility: 10mi
Dew Point: 41°   Wind: 3mph
Humidity: 89%   Direction: 300°WNW
Pressure: 30.11"   Gusts: NA
Location:  40.72°N, 90.41°W
Report Text: KGBG 310615Z AUTO 30003KT 10SM SCT055 BKN065 OVC110 07/05 A3011 RMK AO2 T00650048
Loading
Personal Weather Stations






























Interactive Weather Map
Tropical Storm Tracking
New forecast layout! Learn more

10-Day Weather Forecast

Advertisements
Track Severe Weather on mobile